Lake View, NY (14085)

11:21 PM EST en Enero 25, 2015 (GMT -0500)
Eden | Change Station
CLOSE
Current Station
Estación meteorológica personal
Location: Eden, NY
Altura: 1010 ft
Estaciones meteorológicas cercanas

Alt 1010 ft 42.65 °N, 78.87 °W | Updated 2 minutes ago

Muy nublado
Muy nublado
11.4 ° F
Sensación térmica 11 ° F
N
1.0
Viento Variable Viento desde Este
Gusts 2.0 mph

Hoy
Alta -- | Baja -- ° F
--% Posibilidad de precipitaciones
Ayer
Alta -- | Baja -- ° F
Precip. -- pul
7:36 AM 5:19 PM
Creciente, 39% visible
Presión 30.05 pul
Visibilidad 10.0 Millas
Nubes Baja 10000 ft
Muy nublado 19000 ft
Vientos helados 11 ° F
Punto de rocío 7 ° F
Humedad 81%
Precipitaciones 0.00 pul
Espesor de la nieve No disponible.
UV 0 de una escala de 12
Polen .10 de una escala de 12
Calidad del aire No disponible.
Flu Activity No disponible.
METAR KBUF 260354Z 08007KT 10SM FEW100 BKN190 M10/M15 A3001 RMK AO2 SLP176 T11001150

More Conditions Fewer Conditions

Presión 30.05 pul
Visibilidad 10.0 Millas
Nubes Baja 10000 ft
Muy nublado 19000 ft
Vientos helados 11 ° F
Punto de rocío 7 ° F
Humedad 81%
Precipitaciones 0.00 pul
Espesor de la nieve No disponible.
UV 0 de una escala de 12
Polen .10 de una escala de 12
Calidad del aire No disponible.
Flu Activity No disponible.
METAR KBUF 260354Z 08007KT 10SM FEW100 BKN190 M10/M15 A3001 RMK AO2 SLP176 T11001150

More Conditions Fewer Conditions

10-Day Weather Forecast

Almanac

Astronomía

Jan. 25, 2015 Salida Puesta
Hora real
Crepúsculo civil
Crepúsculo náutico
Crepúsculo astronómico
Luna
Horas de luz
Horas de luz
Tomorrow will be .
, % of the Moon is Illuminated

Extremos de hoy

Máximos del estado Bajos del estado

Community

WunderPhotos

Upload Photos

1,790,135 ¡fotos cargadas!

WunderBlogs® & News

Nearby

Calidad del aire

  Calidad del aire Índice AQ Contaminante
Not available.

Grosos de nieve

Estación Profundido Altura

Actividad de terremotos

Ciudad Distance Mag. Tiempo y dato
Magnitud mínima muestra es 2,5.

Temperaturas de aguas costeras

Lugar Temperatura

Estaciones meteorológicas cercanas